Time;durP1;ratioP1;P1;durP2;ratioP2;P2;SDS_P1;SDS_P2;PMS_P1;PMS_P2;Temp;Humidity;BMP_temperature;BMP_pressure;BME280_temperature;BME280_humidity;BME280_pressure;Samples;Min_cycle;Max_cycle;Signal;HPM_P1;HPM_P2
2023/08/08 00:02:08;;;;;;;2.92;2.20;;;15.90;99.90;;;;;;5022570;28;20068;-68
2023/08/08 00:04:34;;;;;;;3.88;2.10;;;15.90;99.90;;;;;;5022892;28;20045;-69
2023/08/08 00:07:01;;;;;;;4.93;3.13;;;15.90;99.90;;;;;;5026339;28;20375;-71
2023/08/08 00:09:28;;;;;;;1.70;1.60;;;15.90;99.90;;;;;;5022778;28;20138;-70
2023/08/08 00:11:57;;;;;;;2.05;1.85;;;15.90;99.90;;;;;;5027651;28;20041;-70
2023/08/08 00:14:25;;;;;;;3.78;1.80;;;15.90;99.90;;;;;;5023891;28;20125;-71
2023/08/08 00:16:51;;;;;;;3.97;2.83;;;15.90;99.90;;;;;;5023555;28;20041;-70
2023/08/08 00:19:18;;;;;;;4.00;1.70;;;15.90;99.90;;;;;;5019411;28;20096;-68
2023/08/08 00:21:45;;;;;;;3.28;1.88;;;15.90;99.90;;;;;;5023022;28;20695;-69
2023/08/08 00:24:12;;;;;;;3.47;1.77;;;15.90;99.90;;;;;;5021348;28;20205;-69
2023/08/08 00:26:39;;;;;;;3.80;1.95;;;15.90;99.90;;;;;;5027631;28;20134;-67
2023/08/08 00:29:06;;;;;;;2.90;2.08;;;15.90;99.90;;;;;;5018567;28;20049;-70
2023/08/08 00:31:33;;;;;;;3.10;2.83;;;15.90;99.90;;;;;;5025156;28;20060;-69
2023/08/08 00:34:01;;;;;;;2.22;1.60;;;15.90;99.90;;;;;;5023666;28;20053;-68
2023/08/08 00:36:28;;;;;;;3.97;1.58;;;15.90;99.90;;;;;;5023782;28;20061;-70
2023/08/08 00:38:55;;;;;;;2.60;1.60;;;15.90;99.90;;;;;;5025082;28;20050;-70
2023/08/08 00:41:22;;;;;;;1.88;1.52;;;15.90;99.90;;;;;;5022220;28;20070;-69
2023/08/08 00:43:50;;;;;;;1.45;1.27;;;15.90;99.90;;;;;;5021586;28;20574;-70
2023/08/08 00:46:20;;;;;;;3.55;1.50;;;15.90;99.90;;;;;;5040343;28;20050;-68
2023/08/08 00:48:49;;;;;;;1.50;1.17;;;15.90;99.90;;;;;;5024930;28;20045;-68
2023/08/08 00:51:17;;;;;;;1.00;0.90;;;15.90;99.90;;;;;;5019467;28;20127;-69
2023/08/08 00:53:44;;;;;;;2.92;1.10;;;15.90;99.90;;;;;;5020392;28;20045;-70
2023/08/08 00:56:13;;;;;;;1.55;1.27;;;15.90;99.90;;;;;;5021167;28;20037;-70
2023/08/08 00:58:41;;;;;;;1.40;0.70;;;15.90;99.90;;;;;;5040527;28;20046;-68
2023/08/08 01:01:08;;;;;;;0.88;0.80;;;15.90;99.90;;;;;;5020779;28;20042;-69
2023/08/08 01:03:35;;;;;;;1.60;0.90;;;15.90;99.90;;;;;;5022170;28;20045;-68
2023/08/08 01:06:10;;;;;;;3.08;0.93;;;15.90;99.90;;;;;;5022842;28;20038;-69
2023/08/08 01:08:45;;;;;;;1.08;1.00;;;15.90;99.90;;;;;;5021854;28;20887;-67
2023/08/08 01:11:14;;;;;;;2.20;0.70;;;15.90;99.90;;;;;;5021206;28;20045;-70
2023/08/08 01:13:42;;;;;;;0.98;0.85;;;15.90;99.90;;;;;;5025194;28;20061;-70
2023/08/08 01:16:10;;;;;;;1.52;0.65;;;15.90;99.90;;;;;;5024758;28;20073;-70
2023/08/08 01:18:38;;;;;;;2.28;0.80;;;15.80;99.90;;;;;;5012922;28;20053;-69
2023/08/08 01:21:06;;;;;;;0.80;0.80;;;15.80;99.90;;;;;;5022176;28;20096;-69
2023/08/08 01:23:46;;;;;;;1.92;1.02;;;15.80;99.90;;;;;;5019380;28;20529;-69
2023/08/08 01:26:14;;;;;;;2.92;1.25;;;15.80;99.90;;;;;;5034043;28;20049;-68
2023/08/08 01:28:42;;;;;;;4.60;1.45;;;15.70;99.90;;;;;;5026064;28;20136;-69
2023/08/08 01:31:09;;;;;;;1.77;0.90;;;15.70;99.90;;;;;;5021814;28;20379;-70
2023/08/08 01:33:36;;;;;;;2.17;1.20;;;15.70;99.90;;;;;;5021539;28;20037;-68
2023/08/08 01:36:13;;;;;;;2.42;0.93;;;15.70;99.90;;;;;;5023849;28;20124;-70
2023/08/08 01:38:44;;;;;;;0.93;0.85;;;15.70;99.90;;;;;;5010041;28;20093;-68
2023/08/08 01:41:12;;;;;;;3.40;1.15;;;15.70;99.90;;;;;;5019065;28;20068;-70
2023/08/08 01:43:40;;;;;;;2.25;0.73;;;15.60;99.90;;;;;;5017863;28;20194;-69
2023/08/08 01:46:08;;;;;;;1.73;1.00;;;15.60;99.90;;;;;;5019308;28;20103;-69
2023/08/08 01:48:35;;;;;;;2.40;1.05;;;15.60;99.90;;;;;;5021783;28;20164;-70
2023/08/08 01:51:02;;;;;;;2.60;1.27;;;15.50;99.90;;;;;;5021072;28;20049;-71
2023/08/08 01:53:29;;;;;;;0.70;0.70;;;15.50;99.90;;;;;;5018889;28;20071;-71
2023/08/08 01:55:56;;;;;;;1.27;0.60;;;15.50;99.90;;;;;;5019298;28;20096;-70
2023/08/08 01:58:23;;;;;;;2.35;1.23;;;15.60;99.90;;;;;;5022617;28;20103;-68
2023/08/08 02:00:50;;;;;;;2.40;0.93;;;15.50;99.90;;;;;;5021474;28;20046;-68
2023/08/08 02:03:17;;;;;;;1.10;1.00;;;15.50;99.90;;;;;;5021281;28;20064;-68
2023/08/08 02:05:44;;;;;;;4.97;0.90;;;15.50;99.90;;;;;;5021424;28;20065;-70
2023/08/08 02:08:12;;;;;;;2.60;1.02;;;15.50;99.90;;;;;;5020433;28;20068;-71
2023/08/08 02:10:39;;;;;;;2.83;0.90;;;15.50;99.90;;;;;;5018930;28;20041;-69
2023/08/08 02:13:06;;;;;;;0.80;0.65;;;15.50;99.90;;;;;;5023747;28;20041;-68
2023/08/08 02:15:33;;;;;;;3.78;1.77;;;15.50;99.90;;;;;;5039185;28;20108;-68
2023/08/08 02:18:00;;;;;;;2.88;0.80;;;15.50;99.90;;;;;;5021767;28;20054;-69
2023/08/08 02:20:27;;;;;;;2.35;0.90;;;15.50;99.90;;;;;;5038020;28;20463;-70
2023/08/08 02:22:54;;;;;;;1.27;0.88;;;15.50;99.90;;;;;;5022411;28;20048;-70
2023/08/08 02:25:21;;;;;;;1.42;0.95;;;15.50;99.90;;;;;;5020101;28;20049;-67
2023/08/08 02:27:48;;;;;;;1.90;1.23;;;15.50;99.90;;;;;;5018102;28;20496;-68
2023/08/08 02:30:15;;;;;;;1.60;0.63;;;15.50;99.90;;;;;;5020163;28;20045;-68
2023/08/08 02:32:43;;;;;;;1.88;0.65;;;15.50;99.90;;;;;;5021398;28;20145;-70
2023/08/08 02:35:10;;;;;;;1.10;0.65;;;15.50;99.90;;;;;;5017268;28;20036;-68
2023/08/08 02:37:37;;;;;;;1.25;0.57;;;15.50;99.90;;;;;;5025236;28;20041;-68
2023/08/08 02:40:05;;;;;;;2.97;0.38;;;15.50;99.90;;;;;;5019335;28;20041;-70
2023/08/08 02:42:32;;;;;;;0.30;0.20;;;15.50;99.90;;;;;;5022029;28;20119;-69
2023/08/08 02:44:59;;;;;;;1.15;0.40;;;15.40;99.90;;;;;;5018661;28;20045;-69
2023/08/08 02:47:26;;;;;;;0.75;0.50;;;15.40;99.90;;;;;;5023134;28;20681;-70
2023/08/08 02:49:53;;;;;;;0.73;0.30;;;15.40;99.90;;;;;;5020229;28;20068;-68
2023/08/08 02:52:20;;;;;;;2.28;0.63;;;15.40;99.90;;;;;;5018555;28;20635;-69
2023/08/08 02:54:47;;;;;;;1.00;0.40;;;15.40;99.90;;;;;;5017548;28;20073;-67
2023/08/08 02:57:15;;;;;;;1.95;0.38;;;15.40;99.90;;;;;;5018664;28;20087;-69
2023/08/08 02:59:43;;;;;;;9.20;0.50;;;15.30;99.90;;;;;;5019987;28;20171;-71
2023/08/08 03:02:10;;;;;;;3.10;0.40;;;15.30;99.90;;;;;;5021572;28;20509;-70
2023/08/08 03:04:39;;;;;;;1.23;0.82;;;15.30;99.90;;;;;;5021519;28;20077;-69
2023/08/08 03:07:07;;;;;;;1.83;0.98;;;15.30;99.90;;;;;;5020756;28;20069;-72
2023/08/08 03:09:36;;;;;;;0.20;0.20;;;15.30;99.90;;;;;;5018428;28;20056;-68
2023/08/08 03:12:03;;;;;;;1.98;0.35;;;15.30;99.90;;;;;;5020610;28;20051;-70
2023/08/08 03:14:33;;;;;;;4.03;0.38;;;15.30;99.90;;;;;;5012567;28;20089;-71
2023/08/08 03:17:01;;;;;;;4.47;0.50;;;15.40;99.90;;;;;;5021239;28;20061;-68
2023/08/08 03:19:28;;;;;;;0.20;0.20;;;15.30;99.90;;;;;;5016154;28;20053;-69
2023/08/08 03:21:57;;;;;;;1.23;0.30;;;15.40;99.90;;;;;;5019062;28;20104;-68
2023/08/08 03:24:25;;;;;;;1.63;0.45;;;15.30;99.90;;;;;;5022987;28;20050;-69
2023/08/08 03:26:52;;;;;;;0.40;0.40;;;15.30;99.90;;;;;;5017970;28;20175;-68
2023/08/08 03:29:19;;;;;;;1.13;0.35;;;15.30;99.90;;;;;;5020182;28;20049;-70
2023/08/08 03:31:48;;;;;;;1.40;0.20;;;15.40;99.90;;;;;;5021183;28;20045;-68
2023/08/08 03:34:16;;;;;;;0.68;0.65;;;15.40;99.90;;;;;;5024476;28;20053;-71
2023/08/08 03:36:43;;;;;;;0.98;0.30;;;15.40;99.90;;;;;;5049466;28;20038;-69
2023/08/08 03:39:11;;;;;;;0.43;0.22;;;15.30;99.90;;;;;;5020550;28;20135;-71
2023/08/08 03:41:38;;;;;;;1.60;0.75;;;15.40;99.90;;;;;;5020610;28;20087;-70
2023/08/08 03:44:05;;;;;;;0.55;0.38;;;15.40;99.90;;;;;;5019195;28;20137;-68
2023/08/08 03:46:33;;;;;;;0.30;0.20;;;15.40;99.90;;;;;;5018864;28;20143;-67
2023/08/08 03:49:00;;;;;;;2.42;0.25;;;15.40;99.90;;;;;;5014170;28;20049;-69
2023/08/08 03:51:27;;;;;;;1.02;0.52;;;15.40;99.90;;;;;;5019016;28;20061;-71
2023/08/08 03:53:55;;;;;;;0.63;0.20;;;15.40;99.90;;;;;;5020692;28;20050;-69
2023/08/08 03:56:22;;;;;;;0.47;0.10;;;15.50;99.90;;;;;;5021389;28;20718;-69
2023/08/08 03:58:49;;;;;;;0.22;0.03;;;15.40;99.90;;;;;;5019185;28;20050;-68
2023/08/08 04:01:16;;;;;;;0.82;0.20;;;15.50;99.90;;;;;;5019825;28;20041;-67
2023/08/08 04:03:43;;;;;;;0.65;0.20;;;15.40;99.90;;;;;;5018987;28;20053;-67
2023/08/08 04:06:10;;;;;;;0.47;0.10;;;15.50;99.90;;;;;;5018578;28;20126;-69
2023/08/08 04:08:37;;;;;;;0.03;0.00;;;15.40;99.90;;;;;;5019087;28;20057;-70
2023/08/08 04:11:07;;;;;;;2.58;0.20;;;15.40;99.90;;;;;;5019518;28;20542;-68
2023/08/08 04:13:34;;;;;;;1.20;0.40;;;15.40;99.90;;;;;;5024097;28;20110;-69
2023/08/08 04:16:02;;;;;;;1.65;0.28;;;15.40;99.90;;;;;;5022218;28;20580;-69
2023/08/08 04:18:29;;;;;;;0.40;0.20;;;15.40;99.90;;;;;;5020985;28;20049;-69
2023/08/08 04:20:56;;;;;;;0.75;0.15;;;15.40;99.90;;;;;;5022301;28;20041;-68
2023/08/08 04:23:25;;;;;;;0.10;0.10;;;15.30;99.90;;;;;;5013334;28;20052;-68
2023/08/08 04:25:53;;;;;;;1.15;0.22;;;15.40;99.90;;;;;;5017335;28;20045;-69
2023/08/08 04:28:20;;;;;;;5.38;0.52;;;15.40;99.90;;;;;;5019298;28;20049;-68
2023/08/08 04:30:47;;;;;;;0.20;0.20;;;15.40;99.90;;;;;;5023140;28;20060;-69
2023/08/08 04:33:14;;;;;;;2.63;0.30;;;15.40;99.90;;;;;;5023701;28;20045;-70
2023/08/08 04:35:40;;;;;;;0.25;0.10;;;15.30;99.90;;;;;;5024269;28;20041;-69
2023/08/08 04:38:09;;;;;;;0.95;0.20;;;15.30;99.90;;;;;;5023895;28;20099;-69
2023/08/08 04:40:36;;;;;;;3.33;0.20;;;15.30;99.90;;;;;;5021764;28;20049;-68
2023/08/08 04:43:05;;;;;;;0.55;0.17;;;15.30;99.90;;;;;;5023841;28;20051;-68
2023/08/08 04:45:33;;;;;;;0.73;0.20;;;15.30;99.90;;;;;;5025272;28;20064;-68
2023/08/08 04:48:00;;;;;;;1.00;0.30;;;15.30;99.90;;;;;;5025415;28;20041;-68
2023/08/08 04:50:28;;;;;;;0.38;0.22;;;15.30;99.90;;;;;;5025036;28;20483;-69
2023/08/08 04:52:55;;;;;;;0.95;0.20;;;15.30;99.90;;;;;;5024181;28;20613;-70
2023/08/08 04:55:22;;;;;;;0.95;0.30;;;15.30;99.90;;;;;;5016843;28;20613;-68
2023/08/08 04:57:48;;;;;;;1.20;0.28;;;15.20;99.90;;;;;;5021088;28;20058;-69
2023/08/08 05:00:16;;;;;;;1.85;0.40;;;15.20;99.90;;;;;;5023504;28;20076;-68
2023/08/08 05:02:42;;;;;;;0.75;0.50;;;15.20;99.90;;;;;;5021529;28;20029;-70
2023/08/08 05:05:10;;;;;;;1.88;0.30;;;15.10;99.90;;;;;;5024842;28;20053;-68
2023/08/08 05:07:37;;;;;;;1.65;0.20;;;15.10;99.90;;;;;;5022016;28;20049;-70
2023/08/08 05:10:05;;;;;;;3.22;0.22;;;15.10;99.90;;;;;;5020822;28;20377;-68
2023/08/08 05:12:32;;;;;;;1.92;0.52;;;15.10;99.90;;;;;;5022009;28;20103;-68
2023/08/08 05:14:59;;;;;;;1.50;0.30;;;15.00;99.90;;;;;;5023664;28;20045;-69
2023/08/08 05:17:26;;;;;;;0.98;0.20;;;15.00;99.90;;;;;;5022122;28;20042;-69
2023/08/08 05:19:53;;;;;;;1.17;0.30;;;14.90;99.90;;;;;;5023170;28;20196;-68
2023/08/08 05:22:20;;;;;;;0.80;0.52;;;14.90;99.90;;;;;;5024137;28;20148;-69
2023/08/08 05:24:47;;;;;;;2.00;0.32;;;14.80;99.90;;;;;;5023600;28;20384;-72
2023/08/08 05:27:13;;;;;;;0.73;0.30;;;14.80;99.90;;;;;;5023302;28;20069;-71
2023/08/08 05:29:41;;;;;;;1.83;0.65;;;14.70;99.90;;;;;;5018000;28;20110;-68
2023/08/08 05:32:08;;;;;;;1.45;0.40;;;14.70;99.90;;;;;;5023924;28;20037;-68
2023/08/08 05:34:35;;;;;;;1.85;0.50;;;14.70;99.90;;;;;;5018158;28;20045;-72
2023/08/08 05:37:03;;;;;;;1.58;0.45;;;14.70;99.90;;;;;;5021456;28;20080;-71
2023/08/08 05:39:42;;;;;;;;;;;14.60;99.90;;;;;;5019710;28;20144;-68
2023/08/08 05:42:09;;;;;;;1.45;0.65;;;14.60;99.90;;;;;;5022802;28;19925;-69
2023/08/08 05:44:36;;;;;;;3.42;1.23;;;14.60;99.90;;;;;;5021722;28;20038;-69
2023/08/08 05:47:03;;;;;;;3.10;0.60;;;14.50;99.90;;;;;;5023563;28;20049;-66
2023/08/08 05:49:30;;;;;;;5.13;0.93;;;14.50;99.90;;;;;;5023193;28;20504;-68
2023/08/08 05:51:57;;;;;;;3.25;0.55;;;14.50;99.90;;;;;;5024373;28;20053;-69
2023/08/08 05:54:24;;;;;;;22.13;2.42;;;14.50;99.90;;;;;;5020053;28;20038;-68
2023/08/08 05:56:52;;;;;;;1.88;0.40;;;14.50;99.90;;;;;;5024141;28;20806;-71
2023/08/08 05:59:18;;;;;;;0.90;0.30;;;14.50;99.90;;;;;;5037827;28;20506;-70
2023/08/08 06:01:46;;;;;;;9.20;1.27;;;14.50;99.90;;;;;;5033054;28;20037;-70
2023/08/08 06:04:13;;;;;;;3.30;0.80;;;14.50;99.90;;;;;;5022630;28;20611;-69
2023/08/08 06:06:41;;;;;;;3.85;0.68;;;14.50;99.90;;;;;;5023410;28;20046;-69
2023/08/08 06:09:08;;;;;;;1.08;0.40;;;14.50;99.90;;;;;;5019282;28;20049;-66
2023/08/08 06:11:35;;;;;;;0.47;0.40;;;14.50;99.90;;;;;;5022367;28;20060;-68
2023/08/08 06:14:02;;;;;;;1.42;0.57;;;14.50;99.90;;;;;;5019608;28;20132;-69
2023/08/08 06:16:29;;;;;;;3.80;1.20;;;14.50;99.90;;;;;;5025149;28;20143;-68
2023/08/08 06:18:56;;;;;;;3.92;0.45;;;14.40;99.90;;;;;;5016703;28;20041;-67
2023/08/08 06:21:23;;;;;;;3.50;0.70;;;14.40;99.90;;;;;;5022985;28;20041;-68
2023/08/08 06:23:52;;;;;;;3.58;0.70;;;14.40;99.90;;;;;;5020426;28;20041;-68
2023/08/08 06:26:20;;;;;;;2.88;0.70;;;14.40;99.90;;;;;;5022559;28;20045;-69
2023/08/08 06:28:47;;;;;;;2.42;0.85;;;14.40;99.90;;;;;;5021184;28;20045;-67
2023/08/08 06:31:15;;;;;;;3.58;0.95;;;14.30;99.90;;;;;;5019894;28;20048;-68
2023/08/08 06:33:43;;;;;;;6.03;1.83;;;14.30;99.90;;;;;;5021667;28;20041;-67
2023/08/08 06:36:10;;;;;;;1.52;0.73;;;14.30;99.90;;;;;;5022433;28;20092;-70
2023/08/08 06:38:36;;;;;;;5.00;1.65;;;14.20;99.90;;;;;;5024382;28;20124;-67
2023/08/08 06:41:03;;;;;;;2.83;0.47;;;14.20;99.90;;;;;;5021279;28;20041;-67
2023/08/08 06:43:31;;;;;;;6.45;0.90;;;14.20;99.90;;;;;;5022701;28;20041;-67
2023/08/08 06:45:58;;;;;;;2.58;0.70;;;14.20;99.90;;;;;;5019405;28;20099;-67
2023/08/08 06:48:25;;;;;;;4.25;1.10;;;14.10;99.90;;;;;;5021550;28;20054;-68
2023/08/08 06:50:52;;;;;;;1.38;0.50;;;14.20;99.90;;;;;;5021807;28;20046;-68
2023/08/08 06:53:19;;;;;;;4.80;0.75;;;14.20;99.90;;;;;;5021348;28;20049;-67
2023/08/08 06:55:46;;;;;;;2.17;0.77;;;14.20;99.90;;;;;;5018110;28;20289;-67
2023/08/08 06:58:13;;;;;;;4.93;0.93;;;14.20;99.90;;;;;;5018169;28;20049;-68
2023/08/08 07:00:40;;;;;;;5.43;1.30;;;14.10;99.90;;;;;;5018132;28;20753;-67
2023/08/08 07:03:07;;;;;;;2.28;0.70;;;14.10;99.90;;;;;;5022075;28;20091;-71
2023/08/08 07:05:34;;;;;;;5.05;0.88;;;14.10;99.90;;;;;;5020350;28;20045;-67
2023/08/08 07:08:01;;;;;;;2.63;1.42;;;14.10;99.90;;;;;;5021106;28;20303;-67
2023/08/08 07:10:28;;;;;;;3.97;1.10;;;14.10;99.90;;;;;;5017772;28;20045;-69
2023/08/08 07:12:55;;;;;;;2.45;0.90;;;14.10;99.90;;;;;;5018417;28;20679;-67
2023/08/08 07:15:22;;;;;;;1.55;0.70;;;14.10;99.90;;;;;;5020741;28;20065;-67
2023/08/08 07:17:49;;;;;;;2.25;1.13;;;14.10;99.90;;;;;;5021017;28;20443;-67
2023/08/08 07:20:17;;;;;;;2.22;1.35;;;14.00;99.90;;;;;;5019624;28;20789;-68
2023/08/08 07:22:44;;;;;;;3.50;0.70;;;14.00;99.90;;;;;;5020942;28;20045;-70
2023/08/08 07:25:11;;;;;;;3.00;0.65;;;14.00;99.90;;;;;;5017608;28;20064;-68
2023/08/08 07:27:38;;;;;;;1.88;0.73;;;14.00;99.90;;;;;;5022999;28;20037;-67
2023/08/08 07:30:06;;;;;;;4.85;0.60;;;14.10;99.90;;;;;;5024778;28;20045;-69
2023/08/08 07:32:34;;;;;;;2.60;1.05;;;14.10;99.90;;;;;;5020315;28;20418;-68
2023/08/08 07:35:02;;;;;;;2.45;0.68;;;14.10;99.90;;;;;;5018409;28;20398;-69
2023/08/08 07:37:29;;;;;;;2.90;0.60;;;14.10;99.90;;;;;;5020910;28;20092;-67
2023/08/08 07:39:56;;;;;;;5.05;1.30;;;14.10;99.90;;;;;;5020892;28;20112;-69
2023/08/08 07:42:23;;;;;;;4.15;0.73;;;14.20;99.90;;;;;;5018678;28;20392;-67
2023/08/08 07:44:50;;;;;;;6.03;0.90;;;14.20;99.90;;;;;;5020594;28;20049;-68
2023/08/08 07:47:17;;;;;;;4.70;1.02;;;14.30;99.90;;;;;;5017862;28;20061;-69
2023/08/08 07:49:44;;;;;;;4.28;1.13;;;14.40;99.90;;;;;;5017836;28;20156;-68
2023/08/08 07:52:11;;;;;;;3.53;0.95;;;14.40;99.90;;;;;;5018144;28;20042;-67
2023/08/08 07:54:38;;;;;;;4.00;1.20;;;14.40;99.90;;;;;;5020207;28;20135;-68
2023/08/08 07:57:05;;;;;;;3.53;0.85;;;14.50;99.90;;;;;;5021020;28;20156;-68
2023/08/08 07:59:31;;;;;;;2.75;0.80;;;14.50;99.90;;;;;;5020753;28;20128;-68
2023/08/08 08:01:58;;;;;;;2.35;0.60;;;14.60;99.90;;;;;;5018253;28;20482;-68
2023/08/08 08:04:25;;;;;;;9.13;2.08;;;14.60;99.90;;;;;;5021870;28;20041;-68
2023/08/08 08:06:52;;;;;;;1.00;0.75;;;14.70;99.90;;;;;;5023027;28;20033;-69
2023/08/08 08:09:19;;;;;;;2.90;0.52;;;14.70;99.90;;;;;;5024828;28;20049;-69
2023/08/08 08:11:46;;;;;;;5.60;2.05;;;14.70;99.90;;;;;;5024250;28;20760;-68
2023/08/08 08:14:13;;;;;;;0.68;0.25;;;14.70;99.90;;;;;;5022983;28;20551;-69
2023/08/08 08:16:40;;;;;;;3.22;0.68;;;14.60;99.90;;;;;;5025983;28;20053;-68
2023/08/08 08:19:07;;;;;;;4.05;0.55;;;14.70;99.90;;;;;;5021096;28;20056;-70
2023/08/08 08:21:34;;;;;;;2.28;0.30;;;14.70;99.90;;;;;;5026628;28;20530;-71
2023/08/08 08:24:01;;;;;;;3.63;0.80;;;14.70;99.90;;;;;;5013677;28;20194;-68
2023/08/08 08:26:28;;;;;;;2.20;0.60;;;14.80;99.90;;;;;;5010419;28;20045;-69
2023/08/08 08:28:55;;;;;;;3.03;0.80;;;14.90;99.90;;;;;;5018899;28;20144;-70
2023/08/08 08:31:22;;;;;;;3.78;0.77;;;14.90;99.90;;;;;;5023456;28;20053;-69
2023/08/08 08:33:50;;;;;;;3.40;1.08;;;14.90;99.90;;;;;;5023590;28;20349;-67
2023/08/08 08:36:16;;;;;;;2.22;0.60;;;14.90;99.90;;;;;;5019792;28;20056;-69
2023/08/08 08:38:43;;;;;;;3.95;1.08;;;14.90;99.90;;;;;;5022172;28;20037;-68
2023/08/08 08:41:12;;;;;;;2.63;0.75;;;14.90;99.90;;;;;;5021543;28;20131;-68
2023/08/08 08:43:40;;;;;;;3.75;1.10;;;14.90;99.90;;;;;;5022244;28;20107;-67
2023/08/08 08:46:09;;;;;;;2.97;0.80;;;14.90;99.90;;;;;;5021477;28;20462;-66
2023/08/08 08:48:36;;;;;;;4.47;0.73;;;14.90;99.90;;;;;;5025812;28;20120;-68
2023/08/08 08:51:03;;;;;;;2.40;0.60;;;14.90;99.90;;;;;;5024712;28;20045;-68
2023/08/08 08:53:30;;;;;;;2.72;1.15;;;15.00;99.90;;;;;;5024568;28;20053;-68
2023/08/08 08:55:58;;;;;;;5.57;1.23;;;15.00;99.90;;;;;;5024891;28;20564;-69
2023/08/08 08:58:25;;;;;;;6.80;1.35;;;15.00;99.90;;;;;;5020167;28;20077;-68
2023/08/08 09:00:54;;;;;;;2.67;0.95;;;15.00;99.90;;;;;;5023515;28;20053;-67
2023/08/08 09:03:21;;;;;;;7.82;1.83;;;14.90;99.90;;;;;;5022520;28;20099;-68
2023/08/08 09:05:48;;;;;;;4.72;1.48;;;14.90;99.90;;;;;;5029290;28;20128;-68
2023/08/08 09:08:15;;;;;;;3.35;1.10;;;14.90;99.90;;;;;;5024976;28;20057;-68
2023/08/08 09:10:42;;;;;;;6.22;1.00;;;14.90;99.90;;;;;;5023675;28;20443;-68
2023/08/08 09:13:09;;;;;;;4.10;0.88;;;14.80;99.90;;;;;;5018047;28;20041;-66
2023/08/08 09:15:36;;;;;;;2.40;0.98;;;14.80;99.90;;;;;;5021306;28;20041;-69
2023/08/08 09:18:03;;;;;;;4.68;1.00;;;14.80;99.90;;;;;;5021439;28;20060;-69
2023/08/08 09:20:30;;;;;;;3.17;1.38;;;14.70;99.90;;;;;;5023310;28;20056;-68
2023/08/08 09:22:57;;;;;;;9.23;1.52;;;14.60;99.90;;;;;;5021530;28;20072;-69
2023/08/08 09:25:26;;;;;;;2.50;0.65;;;14.60;99.90;;;;;;5021156;28;20045;-69
2023/08/08 09:27:55;;;;;;;3.20;0.70;;;14.60;99.90;;;;;;5022136;28;20195;-69
2023/08/08 09:30:22;;;;;;;4.20;0.95;;;14.60;99.90;;;;;;5023635;28;20052;-69
2023/08/08 09:32:49;;;;;;;1.40;0.73;;;14.60;99.90;;;;;;5024210;28;20192;-69
2023/08/08 09:35:16;;;;;;;3.03;0.80;;;14.60;99.90;;;;;;5020426;28;20133;-69
2023/08/08 09:37:43;;;;;;;5.20;1.45;;;14.70;99.90;;;;;;5022709;28;20111;-68
2023/08/08 09:40:11;;;;;;;4.50;0.90;;;14.90;99.90;;;;;;5022780;28;20059;-70
2023/08/08 09:42:40;;;;;;;6.10;1.20;;;14.90;99.90;;;;;;5015490;28;20135;-69
2023/08/08 09:45:09;;;;;;;4.28;1.02;;;15.00;99.90;;;;;;5024424;28;20037;-68
2023/08/08 09:47:38;;;;;;;4.28;1.02;;;15.10;99.90;;;;;;5023513;28;20045;-67
2023/08/08 09:50:05;;;;;;;2.75;1.10;;;15.10;99.90;;;;;;5024563;28;20095;-68
2023/08/08 09:52:38;;;;;;;2.42;1.20;;;15.10;99.90;;;;;;5024501;28;20139;-69
2023/08/08 09:55:06;;;;;;;2.30;0.75;;;15.10;99.90;;;;;;5020509;28;20048;-68
2023/08/08 09:57:33;;;;;;;1.20;0.55;;;15.10;99.90;;;;;;5020619;28;20399;-70
2023/08/08 10:00:01;;;;;;;6.82;1.45;;;15.10;99.90;;;;;;5020375;28;20152;-69
2023/08/08 10:02:32;;;;;;;14.43;2.42;;;15.10;99.90;;;;;;5020998;28;20442;-70
2023/08/08 10:05:01;;;;;;;4.90;0.93;;;15.10;99.90;;;;;;5019074;28;20038;-69
2023/08/08 10:07:28;;;;;;;4.60;1.45;;;15.10;99.90;;;;;;5023979;28;20073;-68
2023/08/08 10:09:54;;;;;;;1.55;0.45;;;15.00;99.90;;;;;;5020254;28;20128;-67
2023/08/08 10:12:25;;;;;;;6.82;2.63;;;14.90;99.90;;;;;;5019562;28;20057;-68
2023/08/08 10:14:52;;;;;;;;;;;14.90;99.90;;;;;;5019935;28;20095;-68
2023/08/08 10:17:19;;;;;;;5.90;0.82;;;14.80;99.90;;;;;;5019657;28;20668;-69
2023/08/08 10:19:51;;;;;;;4.20;1.42;;;14.70;99.90;;;;;;5021773;28;20041;-67
2023/08/08 10:22:22;;;;;;;3.42;1.20;;;14.70;99.90;;;;;;5025120;28;20037;-69
2023/08/08 10:24:54;;;;;;;4.97;2.20;;;14.60;99.90;;;;;;5019698;28;20041;-67
2023/08/08 10:27:41;;;;;;;3.05;1.08;;;14.60;99.90;;;;;;5023231;28;20033;-69
2023/08/08 10:30:10;;;;;;;3.15;1.13;;;14.40;99.90;;;;;;5021583;28;20049;-68
2023/08/08 10:32:41;;;;;;;3.83;1.55;;;14.50;99.90;;;;;;5020892;28;20045;-68
2023/08/08 10:35:09;;;;;;;4.47;1.20;;;14.60;99.90;;;;;;5021726;28;20092;-68
2023/08/08 10:37:37;;;;;;;5.47;1.38;;;14.70;99.90;;;;;;5019067;28;20049;-69
2023/08/08 10:40:05;;;;;;;4.93;1.45;;;14.80;99.90;;;;;;5021876;28;20048;-68
2023/08/08 10:42:43;;;;;;;4.13;0.88;;;14.90;99.90;;;;;;5020592;28;20045;-68
2023/08/08 10:45:14;;;;;;;6.65;1.95;;;14.90;99.90;;;;;;5023341;28;20091;-69
2023/08/08 10:47:43;;;;;;;5.60;1.60;;;15.00;99.90;;;;;;5020424;28;20411;-68
2023/08/08 10:50:12;;;;;;;7.50;1.63;;;15.00;99.90;;;;;;5022386;28;20037;-69
2023/08/08 10:52:52;;;;;;;3.40;2.00;;;15.10;99.90;;;;;;5021248;28;20403;-69
2023/08/08 10:55:34;;;;;;;4.05;1.10;;;15.10;99.90;;;;;;5018453;28;20042;-68
2023/08/08 10:58:08;;;;;;;3.03;1.50;;;15.10;99.90;;;;;;5022489;28;20037;-68
2023/08/08 11:00:39;;;;;;;7.47;2.30;;;15.00;99.90;;;;;;5020423;28;20128;-69
2023/08/08 11:03:08;;;;;;;7.93;2.47;;;14.80;99.90;;;;;;5020116;28;20482;-70
2023/08/08 11:05:37;;;;;;;8.95;2.47;;;14.60;99.90;;;;;;5020418;28;20499;-67
2023/08/08 11:08:06;;;;;;;5.25;1.80;;;14.50;99.90;;;;;;5020007;28;20135;-69
2023/08/08 11:10:37;;;;;;;12.32;3.25;;;14.40;99.90;;;;;;5017890;28;20537;-68
2023/08/08 11:13:05;;;;;;;7.78;1.67;;;14.40;99.90;;;;;;5023264;28;20045;-69
2023/08/08 11:15:34;;;;;;;3.33;1.88;;;14.50;99.90;;;;;;5017850;28;20071;-68
2023/08/08 11:18:02;;;;;;;5.28;1.67;;;14.60;99.90;;;;;;5020014;28;20042;-70
2023/08/08 11:20:32;;;;;;;6.50;1.77;;;14.70;99.90;;;;;;5017882;28;20045;-68
2023/08/08 11:23:01;;;;;;;11.80;2.60;;;14.90;99.90;;;;;;5020692;28;20120;-69
2023/08/08 11:25:29;;;;;;;4.32;1.98;;;15.00;99.90;;;;;;5018158;28;20073;-68
2023/08/08 11:27:58;;;;;;;2.38;1.08;;;15.20;99.90;;;;;;5020431;28;20400;-68
2023/08/08 11:30:29;;;;;;;7.93;2.72;;;15.30;99.90;;;;;;5022664;28;20399;-71
2023/08/08 11:32:56;;;;;;;7.97;2.60;;;15.40;99.90;;;;;;5023522;28;20051;-67
2023/08/08 11:35:29;;;;;;;3.28;1.70;;;15.50;99.90;;;;;;5022552;28;20049;-68
2023/08/08 11:37:58;;;;;;;6.43;1.85;;;15.60;99.90;;;;;;5016229;28;20045;-68
2023/08/08 11:40:27;;;;;;;8.90;3.33;;;15.60;99.90;;;;;;5020053;28;20132;-67
2023/08/08 11:42:56;;;;;;;4.32;1.10;;;15.70;99.90;;;;;;5021040;28;20045;-68
2023/08/08 11:45:24;;;;;;;9.57;2.55;;;15.90;99.90;;;;;;5022145;28;20164;-69
2023/08/08 11:47:53;;;;;;;3.67;0.80;;;16.10;99.90;;;;;;5019751;28;20048;-70
2023/08/08 11:50:23;;;;;;;7.57;1.67;;;16.10;99.90;;;;;;5021073;28;20038;-68
2023/08/08 11:52:54;;;;;;;4.45;1.45;;;15.90;99.90;;;;;;5021258;28;20045;-68
2023/08/08 11:55:28;;;;;;;31.75;2.22;;;16.10;99.90;;;;;;5017647;28;20049;-69
2023/08/08 11:58:02;;;;;;;8.68;1.75;;;16.20;99.90;;;;;;5022849;28;20050;-69
2023/08/08 12:00:30;;;;;;;4.97;1.45;;;16.10;99.90;;;;;;5018933;28;20128;-68
2023/08/08 12:03:00;;;;;;;6.55;1.48;;;16.10;99.90;;;;;;5022662;28;20048;-69
2023/08/08 12:05:28;;;;;;;6.55;2.63;;;16.00;99.90;;;;;;5015209;28;20049;-67
2023/08/08 12:07:55;;;;;;;10.88;2.58;;;16.10;99.90;;;;;;5021488;28;20057;-70
2023/08/08 12:10:23;;;;;;;5.65;1.88;;;16.30;99.90;;;;;;5011371;28;20054;-70
2023/08/08 12:12:59;;;;;;;9.00;2.08;;;16.50;99.90;;;;;;5019293;28;20049;-67
2023/08/08 12:15:32;;;;;;;4.65;2.65;;;16.50;99.90;;;;;;5017034;28;20056;-68
2023/08/08 12:17:59;;;;;;;4.25;2.10;;;16.70;99.90;;;;;;5019558;28;20053;-68
2023/08/08 12:20:30;;;;;;;7.85;1.60;;;16.50;99.90;;;;;;5019675;28;20046;-67
2023/08/08 12:22:58;;;;;;;6.72;1.60;;;16.60;99.90;;;;;;5019511;28;20077;-70
2023/08/08 12:25:25;;;;;;;7.93;3.03;;;16.50;99.90;;;;;;5019112;28;20037;-69
2023/08/08 12:27:52;;;;;;;7.90;2.83;;;16.60;99.90;;;;;;5019358;28;20599;-70
2023/08/08 12:30:19;;;;;;;13.57;2.83;;;16.70;99.90;;;;;;5019866;28;20420;-70
2023/08/08 12:32:46;;;;;;;11.07;2.65;;;16.80;99.90;;;;;;5021349;28;20076;-68
2023/08/08 12:35:13;;;;;;;5.20;2.05;;;16.80;99.90;;;;;;5019407;28;20045;-69
2023/08/08 12:37:40;;;;;;;10.65;2.60;;;16.60;99.90;;;;;;5018359;28;21436;-69
2023/08/08 12:40:07;;;;;;;7.25;2.30;;;16.40;99.90;;;;;;5016607;28;20457;-70
2023/08/08 12:42:34;;;;;;;9.23;1.83;;;16.20;99.90;;;;;;5021215;28;20841;-69
2023/08/08 12:45:01;;;;;;;4.53;2.20;;;16.10;99.90;;;;;;5016196;28;20044;-70
2023/08/08 12:47:29;;;;;;;10.85;3.17;;;16.10;99.90;;;;;;5019210;28;20046;-68
2023/08/08 12:49:56;;;;;;;8.88;2.25;;;16.10;99.90;;;;;;5018046;28;20120;-69
2023/08/08 12:52:23;;;;;;;7.07;1.85;;;16.10;99.90;;;;;;5024582;28;20441;-68